Time;durP1;ratioP1;P1;durP2;ratioP2;P2;SDS_P1;SDS_P2;PMS_P1;PMS_P2;Temp;Humidity;BMP_temperature;BMP_pressure;BME280_temperature;BME280_humidity;BME280_pressure;Samples;Min_cycle;Max_cycle;Signal;HPM_P1;HPM_P2
2024/03/27 00:01:11;;;;;;;20.60;16.90;;;;;;;;;;5153108;27;20026;-59
2024/03/27 00:03:37;;;;;;;19.67;17.25;;;;;;;;;;5152975;27;20137;-60
2024/03/27 00:06:07;;;;;;;21.70;18.40;;;;;;;;;;5152653;27;20031;-60
2024/03/27 00:08:33;;;;;;;23.83;17.13;;;;;;;;;;5153351;27;20038;-60
2024/03/27 00:10:59;;;;;;;20.65;17.95;;;;;;;;;;5153045;27;20054;-60
2024/03/27 00:13:25;;;;;;;20.48;17.60;;;;;;;;;;5152947;27;20472;-61
2024/03/27 00:15:52;;;;;;;21.45;18.17;;;;;;;;;;5153040;27;20026;-60
2024/03/27 00:18:18;;;;;;;23.38;18.15;;;;;;;;;;5153116;27;20054;-60
2024/03/27 00:20:45;;;;;;;21.08;18.92;;;;;;;;;;5152518;27;20091;-60
2024/03/27 00:23:11;;;;;;;19.93;17.80;;;;;;;;;;5153007;27;20061;-59
2024/03/27 00:25:37;;;;;;;23.58;18.83;;;;;;;;;;5136417;27;20030;-60
2024/03/27 00:28:03;;;;;;;24.23;18.63;;;;;;;;;;5153809;27;20429;-60
2024/03/27 00:30:29;;;;;;;22.20;18.55;;;;;;;;;;5153655;27;20030;-60
2024/03/27 00:32:58;;;;;;;22.75;18.50;;;;;;;;;;5153998;27;20131;-61
2024/03/27 00:35:24;;;;;;;22.35;19.02;;;;;;;;;;5154286;27;20007;-61
2024/03/27 00:37:50;;;;;;;23.42;19.02;;;;;;;;;;5154294;27;20026;-61
2024/03/27 00:40:16;;;;;;;22.67;18.80;;;;;;;;;;5154388;27;20026;-61
2024/03/27 00:42:42;;;;;;;22.63;17.95;;;;;;;;;;5154087;27;20034;-60
2024/03/27 00:45:08;;;;;;;21.98;18.08;;;;;;;;;;5135418;27;20034;-61
2024/03/27 00:47:34;;;;;;;23.33;19.10;;;;;;;;;;5154212;27;20030;-60
2024/03/27 00:50:00;;;;;;;21.35;18.60;;;;;;;;;;5135286;27;20049;-60
2024/03/27 00:52:26;;;;;;;22.67;19.40;;;;;;;;;;5153682;27;20476;-61
2024/03/27 00:54:52;;;;;;;20.67;18.52;;;;;;;;;;5154042;27;20033;-61
2024/03/27 00:57:18;;;;;;;21.02;18.77;;;;;;;;;;5135271;27;20050;-60
2024/03/27 00:59:45;;;;;;;24.67;21.10;;;;;;;;;;5148025;27;20461;-60
2024/03/27 01:02:11;;;;;;;21.10;18.10;;;;;;;;;;5153667;27;20075;-60
2024/03/27 01:04:37;;;;;;;22.88;18.08;;;;;;;;;;5153675;27;20166;-60
2024/03/27 01:07:03;;;;;;;24.42;20.08;;;;;;;;;;5153781;27;20098;-60
2024/03/27 01:09:29;;;;;;;22.67;19.23;;;;;;;;;;5154003;27;20019;-60
2024/03/27 01:11:55;;;;;;;23.87;20.80;;;;;;;;;;5134954;27;20106;-60
2024/03/27 01:14:21;;;;;;;26.02;19.23;;;;;;;;;;5153894;27;20106;-60
2024/03/27 01:16:47;;;;;;;21.70;18.70;;;;;;;;;;5153637;27;20029;-60
2024/03/27 01:19:13;;;;;;;26.30;18.75;;;;;;;;;;5153519;27;20027;-60
2024/03/27 01:21:39;;;;;;;24.50;19.23;;;;;;;;;;5134879;27;20022;-60
2024/03/27 01:24:05;;;;;;;25.42;21.05;;;;;;;;;;5147316;27;20060;-60
2024/03/27 01:26:31;;;;;;;25.15;19.27;;;;;;;;;;5145465;27;20374;-60
2024/03/27 01:28:57;;;;;;;25.08;18.80;;;;;;;;;;5153578;27;20023;-60
2024/03/27 01:31:23;;;;;;;22.17;19.77;;;;;;;;;;5153581;27;20019;-60
2024/03/27 01:33:49;;;;;;;22.25;19.00;;;;;;;;;;5153344;27;20469;-60
2024/03/27 01:36:15;;;;;;;22.40;20.00;;;;;;;;;;5153400;27;20030;-60
2024/03/27 01:38:41;;;;;;;25.55;20.65;;;;;;;;;;5153713;27;20027;-60
2024/03/27 01:41:07;;;;;;;24.05;21.02;;;;;;;;;;5153259;27;20379;-60
2024/03/27 01:43:33;;;;;;;27.80;20.58;;;;;;;;;;5134656;27;20043;-60
2024/03/27 01:45:59;;;;;;;25.92;21.30;;;;;;;;;;5153482;27;20033;-60
2024/03/27 01:48:26;;;;;;;22.77;20.23;;;;;;;;;;5153586;27;20044;-60
2024/03/27 01:50:53;;;;;;;24.17;20.30;;;;;;;;;;5153579;27;20375;-60
2024/03/27 01:53:20;;;;;;;26.70;21.88;;;;;;;;;;5153435;27;20030;-60
2024/03/27 01:55:47;;;;;;;29.20;22.85;;;;;;;;;;5153524;27;20022;-60
2024/03/27 01:58:13;;;;;;;24.55;21.23;;;;;;;;;;5153269;27;20034;-60
2024/03/27 02:00:39;;;;;;;25.42;22.20;;;;;;;;;;5153565;27;20019;-60
2024/03/27 02:03:06;;;;;;;29.55;22.20;;;;;;;;;;5156731;27;20049;-60
2024/03/27 02:05:32;;;;;;;27.08;22.10;;;;;;;;;;5157257;27;20026;-60
2024/03/27 02:07:58;;;;;;;26.52;22.05;;;;;;;;;;5157376;27;20033;-60
2024/03/27 02:10:24;;;;;;;27.17;21.60;;;;;;;;;;5157078;27;20019;-60
2024/03/27 02:12:50;;;;;;;26.83;22.27;;;;;;;;;;5157362;27;20030;-60
2024/03/27 02:15:18;;;;;;;27.42;23.17;;;;;;;;;;5156961;27;20019;-60
2024/03/27 02:17:44;;;;;;;29.00;23.58;;;;;;;;;;5156774;27;20400;-60
2024/03/27 02:20:10;;;;;;;27.35;23.10;;;;;;;;;;5156210;27;20022;-60
2024/03/27 02:22:37;;;;;;;31.20;24.13;;;;;;;;;;5156260;27;20030;-60
2024/03/27 02:25:16;;;;;;;28.45;24.17;;;;;;;;;;5156137;27;20092;-59
2024/03/27 02:27:42;;;;;;;30.42;25.98;;;;;;;;;;5141534;27;20479;-59
2024/03/27 02:30:09;;;;;;;26.08;23.25;;;;;;;;;;5156337;27;20018;-60
2024/03/27 02:32:35;;;;;;;30.23;25.48;;;;;;;;;;5156327;27;20434;-61
2024/03/27 02:35:01;;;;;;;31.55;25.63;;;;;;;;;;5151315;27;20027;-60
2024/03/27 02:37:27;;;;;;;28.73;23.70;;;;;;;;;;5154404;27;20018;-61
2024/03/27 02:39:53;;;;;;;27.38;24.38;;;;;;;;;;5154116;27;20017;-61
2024/03/27 02:42:19;;;;;;;31.60;25.65;;;;;;;;;;5153379;27;20038;-60
2024/03/27 02:44:46;;;;;;;29.35;25.48;;;;;;;;;;5155359;27;20019;-60
2024/03/27 02:47:12;;;;;;;29.02;25.45;;;;;;;;;;5155353;27;20014;-60
2024/03/27 02:49:38;;;;;;;32.28;27.08;;;;;;;;;;5154695;27;20539;-61
2024/03/27 02:52:04;;;;;;;29.88;26.00;;;;;;;;;;5151161;27;20022;-60
2024/03/27 02:54:30;;;;;;;28.55;25.45;;;;;;;;;;5152574;27;20019;-60
2024/03/27 02:56:56;;;;;;;29.70;26.13;;;;;;;;;;5146287;27;20027;-60
2024/03/27 02:59:22;;;;;;;34.45;27.92;;;;;;;;;;5124289;27;20429;-61
2024/03/27 03:01:48;;;;;;;29.95;25.77;;;;;;;;;;5151011;27;20027;-60
2024/03/27 03:04:14;;;;;;;31.13;27.58;;;;;;;;;;5156066;27;20030;-61
2024/03/27 03:06:40;;;;;;;26.48;23.58;;;;;;;;;;5137562;27;20034;-61
2024/03/27 03:09:08;;;;;;;26.30;23.10;;;;;;;;;;5156243;27;20026;-61
2024/03/27 03:11:34;;;;;;;26.08;23.38;;;;;;;;;;5156024;27;20111;-61
2024/03/27 03:14:00;;;;;;;26.00;23.13;;;;;;;;;;5154418;27;20476;-61
2024/03/27 03:16:26;;;;;;;25.85;23.00;;;;;;;;;;5137256;27;20474;-61
2024/03/27 03:18:52;;;;;;;26.92;23.40;;;;;;;;;;5156005;27;20052;-61
2024/03/27 03:21:18;;;;;;;25.13;22.33;;;;;;;;;;5154509;27;20026;-59
2024/03/27 03:23:44;;;;;;;26.90;24.08;;;;;;;;;;5155536;27;20026;-59
2024/03/27 03:26:10;;;;;;;26.85;24.08;;;;;;;;;;5148501;27;20023;-60
2024/03/27 03:28:36;;;;;;;22.77;20.48;;;;;;;;;;5141108;27;20023;-60
2024/03/27 03:31:06;;;;;;;26.75;23.17;;;;;;;;;;5155466;27;20029;-60
2024/03/27 03:33:32;;;;;;;28.95;23.95;;;;;;;;;;5155235;27;20043;-60
2024/03/27 03:35:58;;;;;;;25.25;22.55;;;;;;;;;;5155731;27;20144;-60
2024/03/27 03:38:26;;;;;;;26.08;23.20;;;;;;;;;;5155213;27;20073;-59
2024/03/27 03:40:56;;;;;;;26.52;23.73;;;;;;;;;;5155368;27;20015;-60
2024/03/27 03:43:23;;;;;;;26.95;23.88;;;;;;;;;;5136435;27;20038;-60
2024/03/27 03:45:49;;;;;;;26.75;23.98;;;;;;;;;;5155211;27;20011;-60
2024/03/27 03:48:15;;;;;;;25.33;22.63;;;;;;;;;;5155278;27;20075;-60
2024/03/27 03:50:41;;;;;;;24.63;21.90;;;;;;;;;;5155172;27;20022;-60
2024/03/27 03:53:08;;;;;;;26.70;24.00;;;;;;;;;;5154908;27;20023;-60
2024/03/27 03:55:34;;;;;;;25.90;22.80;;;;;;;;;;5136431;27;20056;-60
2024/03/27 03:58:00;;;;;;;25.70;22.90;;;;;;;;;;5155350;27;20011;-60
2024/03/27 04:00:26;;;;;;;24.20;21.63;;;;;;;;;;5154705;27;20050;-60
2024/03/27 04:02:53;;;;;;;26.50;23.60;;;;;;;;;;5155131;27;20102;-60
2024/03/27 04:05:19;;;;;;;25.75;22.88;;;;;;;;;;5154698;27;20021;-60
2024/03/27 04:07:48;;;;;;;24.80;22.17;;;;;;;;;;5154865;27;20042;-60
2024/03/27 04:10:14;;;;;;;25.63;22.90;;;;;;;;;;5154863;27;20026;-60
2024/03/27 04:12:40;;;;;;;24.55;21.85;;;;;;;;;;5154901;27;20058;-60
2024/03/27 04:15:06;;;;;;;26.02;23.30;;;;;;;;;;5154863;27;20027;-60
2024/03/27 04:17:32;;;;;;;25.52;22.80;;;;;;;;;;5154490;27;20029;-60
2024/03/27 04:20:00;;;;;;;26.65;24.00;;;;;;;;;;5144117;27;20026;-60
2024/03/27 04:22:26;;;;;;;25.85;23.08;;;;;;;;;;5154214;27;20022;-60
2024/03/27 04:24:52;;;;;;;26.92;24.10;;;;;;;;;;5153827;27;20490;-61
2024/03/27 04:27:18;;;;;;;25.83;22.92;;;;;;;;;;5154217;27;20063;-60
2024/03/27 04:29:44;;;;;;;25.33;22.75;;;;;;;;;;5139688;27;20028;-60
2024/03/27 04:32:10;;;;;;;27.30;24.45;;;;;;;;;;5154043;27;20043;-59
2024/03/27 04:34:36;;;;;;;28.27;25.35;;;;;;;;;;5154200;27;20023;-60
2024/03/27 04:37:02;;;;;;;24.40;21.90;;;;;;;;;;5135520;27;20018;-60
2024/03/27 04:39:28;;;;;;;25.42;22.73;;;;;;;;;;5135455;27;20023;-59
2024/03/27 04:41:54;;;;;;;25.55;22.85;;;;;;;;;;5153977;27;20031;-61
2024/03/27 04:44:20;;;;;;;25.73;23.10;;;;;;;;;;5153863;27;20083;-60
2024/03/27 04:46:46;;;;;;;25.77;23.08;;;;;;;;;;5154119;27;20376;-60
2024/03/27 04:49:12;;;;;;;24.92;22.33;;;;;;;;;;5154230;27;20437;-59
2024/03/27 04:51:38;;;;;;;26.23;22.83;;;;;;;;;;5154027;27;20067;-59
2024/03/27 04:54:04;;;;;;;25.52;22.83;;;;;;;;;;5154072;27;20199;-60
2024/03/27 04:56:31;;;;;;;23.98;21.55;;;;;;;;;;5153929;27;20087;-60
2024/03/27 04:58:58;;;;;;;24.30;21.70;;;;;;;;;;5121015;27;20023;-60
2024/03/27 05:01:24;;;;;;;25.95;23.05;;;;;;;;;;5153553;27;20121;-60
2024/03/27 05:03:50;;;;;;;25.13;22.63;;;;;;;;;;5153533;27;20425;-59
2024/03/27 05:06:16;;;;;;;24.83;22.33;;;;;;;;;;5153889;27;20091;-60
2024/03/27 05:08:42;;;;;;;27.35;24.35;;;;;;;;;;5153624;27;20426;-59
2024/03/27 05:11:10;;;;;;;26.55;23.70;;;;;;;;;;5153684;27;20026;-59
2024/03/27 05:13:36;;;;;;;25.65;22.95;;;;;;;;;;5153470;27;20030;-60
2024/03/27 05:16:02;;;;;;;25.67;23.02;;;;;;;;;;5153758;27;20023;-60
2024/03/27 05:18:28;;;;;;;25.85;23.13;;;;;;;;;;5134920;27;20501;-60
2024/03/27 05:20:54;;;;;;;26.17;23.35;;;;;;;;;;5153693;27;20014;-60
2024/03/27 05:23:21;;;;;;;26.60;23.77;;;;;;;;;;5153335;27;20038;-60
2024/03/27 05:25:47;;;;;;;25.35;22.88;;;;;;;;;;5153447;27;20140;-61
2024/03/27 05:28:13;;;;;;;25.58;22.98;;;;;;;;;;5153672;27;20027;-60
2024/03/27 05:30:39;;;;;;;25.65;23.00;;;;;;;;;;5153221;27;20023;-60
2024/03/27 05:33:07;;;;;;;24.20;21.52;;;;;;;;;;5153168;27;20137;-60
2024/03/27 05:35:33;;;;;;;27.42;24.55;;;;;;;;;;5134841;27;20025;-60
2024/03/27 05:37:59;;;;;;;26.52;23.10;;;;;;;;;;5157548;27;20019;-60
2024/03/27 05:40:25;;;;;;;22.35;19.88;;;;;;;;;;5138999;27;20023;-60
2024/03/27 05:42:51;;;;;;;24.17;19.90;;;;;;;;;;5158006;27;20154;-60
2024/03/27 05:45:17;;;;;;;30.58;24.88;;;;;;;;;;5157771;27;20059;-60
2024/03/27 05:47:43;;;;;;;42.88;24.75;;;;;;;;;;5157638;27;20349;-60
2024/03/27 05:50:10;;;;;;;50.63;29.23;;;;;;;;;;5157361;27;20491;-61
2024/03/27 05:52:36;;;;;;;32.28;23.25;;;;;;;;;;5138752;27;20072;-62
2024/03/27 05:55:03;;;;;;;40.15;29.50;;;;;;;;;;5138839;27;20559;-63
2024/03/27 05:57:30;;;;;;;55.33;32.63;;;;;;;;;;5157615;27;20376;-63
2024/03/27 05:59:56;;;;;;;33.22;22.40;;;18.90;99.90;;;;;;5138696;27;20118;-62
2024/03/27 06:02:22;;;;;;;36.35;24.63;;;11.20;99.90;;;;;;5157169;27;20037;-62
2024/03/27 06:04:47;;;;;;;33.63;21.10;;;11.00;99.90;;;;;;5157420;27;20105;-62
2024/03/27 06:07:13;;;;;;;24.55;18.48;;;11.00;99.90;;;;;;5157484;27;20034;-61
2024/03/27 06:09:40;;;;;;;32.22;20.02;;;11.00;99.90;;;;;;5149954;27;20076;-61
2024/03/27 06:12:06;;;;;;;20.10;14.40;;;11.10;99.90;;;;;;5134939;27;20544;-62
2024/03/27 06:14:32;;;;;;;15.80;10.82;;;11.10;99.90;;;;;;5138778;27;20046;-61
2024/03/27 06:16:58;;;;;;;11.02;8.65;;;10.90;99.90;;;;;;5157318;27;20073;-61
2024/03/27 06:19:24;;;;;;;9.05;7.63;;;11.00;99.90;;;;;;5157292;27;20063;-61
2024/03/27 06:21:50;;;;;;;10.02;8.05;;;11.10;99.90;;;;;;5157168;27;20015;-61
2024/03/27 06:24:15;;;;;;;11.13;8.00;;;11.10;99.90;;;;;;5157156;27;20041;-61
2024/03/27 06:26:41;;;;;;;11.70;9.07;;;11.20;99.90;;;;;;5157091;27;20026;-61
2024/03/27 06:29:07;;;;;;;11.10;9.00;;;11.20;99.90;;;;;;5155003;27;20487;-61
2024/03/27 06:31:32;;;;;;;14.30;10.27;;;10.90;99.90;;;;;;5156910;27;20018;-61
2024/03/27 06:33:58;;;;;;;11.38;8.98;;;;;;;;;;5156610;27;20127;-61
2024/03/27 06:36:24;;;;;;;11.95;7.78;;;;;;;;;;5137839;27;20555;-61
2024/03/27 06:38:50;;;;;;;9.48;7.63;;;;;;;;;;5154042;27;20029;-62
2024/03/27 06:41:16;;;;;;;11.80;7.75;;;;;;;;;;5156603;27;20057;-60
2024/03/27 06:43:42;;;;;;;13.32;9.05;;;;;;;;;;5152923;27;20043;-61
2024/03/27 06:46:08;;;;;;;11.25;7.30;;;;;;;;;;5156329;27;20018;-61
2024/03/27 06:48:43;;;;;;;9.00;6.78;;;;;;;;;;5156080;27;20054;-60
2024/03/27 06:51:10;;;;;;;9.50;6.18;;;;;;;;;;5149314;27;20023;-59
2024/03/27 06:53:36;;;;;;;11.13;6.18;;;;;;;;;;5155927;27;20025;-60
2024/03/27 06:56:04;;;;;;;7.05;5.60;;;;;;;;;;5155428;27;20505;-61
2024/03/27 06:58:31;;;;;;;8.10;6.10;;;;;;;;;;5155988;27;20023;-60
2024/03/27 07:00:57;;;;;;;6.57;4.57;;;;;;;;;;5133823;27;20444;-60
2024/03/27 07:03:23;;;;;;;8.35;5.45;;;;;;;;;;5152880;27;20134;-60
2024/03/27 07:05:49;;;;;;;5.30;4.65;;;;;;;;;;5155926;27;20046;-61
2024/03/27 07:08:15;;;;;;;5.40;4.70;;;;;;;;;;5152256;27;20050;-59
2024/03/27 07:10:41;;;;;;;6.75;5.28;;;;;;;;;;5154561;27;20018;-60
2024/03/27 07:13:07;;;;;;;7.03;4.90;;;;;;;;;;5150231;27;20079;-60
2024/03/27 07:18:37;;;;;;;6.57;4.65;;;;;;;;;;5151481;27;20486;-59
2024/03/27 07:21:03;;;;;;;4.60;3.97;;;;;;;;;;5151194;27;20023;-60
2024/03/27 07:23:29;;;;;;;7.10;4.10;;;;;;;;;;5146036;27;20446;-59
2024/03/27 07:25:55;;;;;;;5.65;3.97;;;;;;;;;;5149207;27;20023;-60
2024/03/27 07:28:22;;;;;;;5.78;3.83;;;;;;;;;;5150822;27;20122;-60
2024/03/27 07:30:51;;;;;;;4.80;4.30;;;;;;;;;;5145307;27;20011;-61
2024/03/27 07:33:17;;;;;;;7.05;4.32;;;;;;;;;;5149149;27;20046;-60
2024/03/27 07:35:43;;;;;;;6.57;4.03;;;;;;;;;;5152273;27;20380;-60
2024/03/27 07:38:09;;;;;;;6.68;4.32;;;;;;;;;;5153988;27;20019;-61
2024/03/27 07:40:35;;;;;;;7.57;4.18;;;;;;;;;;5146885;27;20080;-60
2024/03/27 07:43:02;;;;;;;7.25;4.57;;;;;;;;;;5134423;27;20553;-60
2024/03/27 07:45:28;;;;;;;7.00;3.63;;;;;;;;;;5129304;27;20019;-61
2024/03/27 07:47:55;;;;;;;4.88;3.55;;;;;;;;;;5151171;27;20019;-60
2024/03/27 07:50:21;;;;;;;7.10;4.15;;;;;;;;;;5148301;27;20030;-61
2024/03/27 07:52:47;;;;;;;6.63;4.00;;;;;;;;;;5152432;27;20039;-61
2024/03/27 07:55:13;;;;;;;6.18;4.30;;;;;;;;;;5147243;27;20030;-60
2024/03/27 07:57:39;;;;;;;6.20;4.60;;;;;;;;;;5141454;27;20084;-61
2024/03/27 08:00:11;;;;;;;6.95;4.90;;;;;;;;;;5151399;27;20027;-60
2024/03/27 08:02:37;;;;;;;5.82;4.53;;;;;;;;;;5145803;27;20035;-65
2024/03/27 08:05:05;;;;;;;9.00;4.88;;;;;;;;;;5144615;27;20484;-67
2024/03/27 08:07:31;;;;;;;6.78;5.22;;;;;;;;;;5127214;27;20031;-65
2024/03/27 08:09:57;;;;;;;9.38;4.90;;;;;;;;;;5147069;27;20464;-63
2024/03/27 08:12:23;;;;;;;7.63;5.20;;;;;;;;;;5149246;27;20045;-66
2024/03/27 08:14:49;;;;;;;6.50;5.18;;;;;;;;;;5147212;27;20077;-63
2024/03/27 08:17:15;;;;;;;9.32;5.80;;;;;;;;;;5140999;27;20027;-58
2024/03/27 08:19:41;;;;;;;10.80;6.25;;;;;;;;;;5143470;27;20417;-61
2024/03/27 08:22:08;;;;;;;10.75;5.90;;;;;;;;;;5146533;27;20046;-61
2024/03/27 08:24:34;;;;;;;10.38;7.00;;;;;;;;;;5147997;27;20075;-59
2024/03/27 08:27:04;;;;;;;12.18;7.28;;;;;;;;;;5152127;27;20057;-61
2024/03/27 08:29:30;;;;;;;13.27;8.57;;;;;;;;;;5152120;27;20029;-62
2024/03/27 08:31:56;;;;;;;10.82;7.57;;;;;;;;;;5147173;27;20043;-58
2024/03/27 08:34:22;;;;;;;7.50;5.75;;;;;;;;;;5149975;27;20035;-61
2024/03/27 08:36:48;;;;;;;8.43;6.22;;;;;;;;;;5152565;27;20391;-62
2024/03/27 08:39:15;;;;;;;11.80;6.22;;;;;;;;;;5150415;27;20399;-59
2024/03/27 08:41:41;;;;;;;7.13;5.88;;;;;;;;;;5139527;27;20027;-66
2024/03/27 08:44:07;;;;;;;8.68;5.40;;;;;;;;;;5152523;27;20022;-54
2024/03/27 08:46:33;;;;;;;9.90;6.07;;;;;;;;;;5128549;27;20105;-68
2024/03/27 08:49:00;;;;;;;7.03;4.88;;;;;;;;;;5141718;27;20375;-64
2024/03/27 08:51:26;;;;;;;9.57;5.25;;;;;;;;;;5140499;27;20072;-65
2024/03/27 08:53:52;;;;;;;5.88;3.88;;;;;;;;;;5130481;27;20444;-74
2024/03/27 08:56:19;;;;;;;7.15;4.40;;;;;;;;;;5153082;27;20414;-68
2024/03/27 08:58:46;;;;;;;5.55;3.72;;;;;;;;;;5153872;27;20125;-69
2024/03/27 09:01:15;;;;;;;8.73;5.32;;;;;;;;;;5147665;27;20067;-66
2024/03/27 09:03:41;;;;;;;6.93;4.82;;;;;;;;;;5131023;27;20061;-64
2024/03/27 09:06:08;;;;;;;5.85;4.50;;;;;;;;;;5151616;27;20110;-67
2024/03/27 09:08:34;;;;;;;10.85;6.90;;;;;;;;;;5141240;27;20332;-63
2024/03/27 09:11:00;;;;;;;9.27;6.10;;;;;;;;;;5147996;27;20030;-70
2024/03/27 09:13:26;;;;;;;8.07;5.43;;;;;;;;;;5147971;27;20055;-71
2024/03/27 09:15:55;;;;;;;4.60;4.20;;;;;;;;;;5144044;27;20034;-61
2024/03/27 09:18:21;;;;;;;8.07;4.90;;;;;;;;;;5143273;27;20031;-60
2024/03/27 09:20:54;;;;;;;6.63;4.80;;;;;;;;;;5151667;27;20493;-65
2024/03/27 09:23:20;;;;;;;5.97;4.82;;;;;;;;;;5126440;27;20429;-61
2024/03/27 09:25:56;;;;;;;11.80;7.30;;;;;;;;;;5151619;27;20026;-49
2024/03/27 09:28:22;;;;;;;10.15;5.95;;;;;;;;;;5152117;27;20505;-59
2024/03/27 09:30:48;;;;;;;10.65;6.00;;;;;;;;;;5149210;27;20087;-67
2024/03/27 09:33:14;;;;;;;8.52;5.88;;;;;;;;;;5146605;27;20134;-61
2024/03/27 09:35:42;;;;;;;11.60;7.57;;;;;;;;;;5151799;27;20026;-65
2024/03/27 09:38:08;;;;;;;7.60;5.60;;;;;;;;;;5141485;27;20027;-64
2024/03/27 09:40:39;;;;;;;9.07;6.95;;;;;;;;;;5152516;27;20046;-73
2024/03/27 09:43:05;;;;;;;10.57;6.55;;;;;;;;;;5150480;27;20042;-72
2024/03/27 09:45:33;;;;;;;9.18;7.00;;;;;;;;;;5145282;27;20515;-71
2024/03/27 09:47:59;;;;;;;7.55;5.47;;;;;;;;;;5145855;27;20022;-75
2024/03/27 09:50:26;;;;;;;9.38;5.93;;;;;;;;;;5149320;27;20054;-68
2024/03/27 09:52:52;;;;;;;8.73;6.18;;;;;;;;;;5117455;28;20392;-61
2024/03/27 09:55:19;;;;;;;7.63;4.88;;;;;;;;;;5149119;27;20027;-73
2024/03/27 09:57:45;;;;;;;12.35;7.15;;;;;;;;;;5147901;27;20026;-66
2024/03/27 10:00:12;;;;;;;9.45;6.22;;;;;;;;;;5151919;27;20072;-74
2024/03/27 10:02:38;;;;;;;8.82;5.97;;;;;;;;;;5143998;27;20027;-65
2024/03/27 10:05:05;;;;;;;8.73;5.03;;;;;;;;;;5147017;27;20476;-67
2024/03/27 10:07:31;;;;;;;4.57;4.03;;;;;;;;;;5123278;27;20026;-60
2024/03/27 10:09:57;;;;;;;4.78;3.83;;;;;;;;;;5145856;27;20034;-61
2024/03/27 10:12:23;;;;;;;7.35;4.57;;;;;;;;;;5150564;27;20023;-60
2024/03/27 10:14:49;;;;;;;4.25;3.13;;;;;;;;;;5152775;27;20393;-63
2024/03/27 10:17:16;;;;;;;7.38;4.80;;;;;;;;;;5148209;27;20496;-61
2024/03/27 10:19:42;;;;;;;5.72;4.68;;;;;;;;;;5145561;27;20481;-61
2024/03/27 10:22:09;;;;;;;6.30;3.72;;;;;;;;;;5152657;27;20063;-60
2024/03/27 10:24:35;;;;;;;7.03;4.78;;;;;;;;;;5157038;27;20103;-54
2024/03/27 10:27:02;;;;;;;5.00;3.63;;;;;;;;;;5148816;27;20499;-70
2024/03/27 10:29:28;;;;;;;3.35;2.97;;;;;;;;;;5155288;27;20060;-71
2024/03/27 10:31:56;;;;;;;6.37;4.50;;;;;;;;;;5153035;27;20522;-67
2024/03/27 10:34:22;;;;;;;4.65;3.95;;;;;;;;;;5147124;27;20401;-70
2024/03/27 10:36:52;;;;;;;3.30;3.00;;;;;;;;;;5144114;27;20073;-60
2024/03/27 10:39:39;;;;;;;2.53;2.33;;;;;;;;;;5147283;27;20110;-75
2024/03/27 10:42:07;;;;;;;2.88;1.55;;;;;;;;;;5151655;27;20103;-70
2024/03/27 10:44:34;;;;;;;2.92;2.10;;;;;;;;;;5145263;27;20035;-77
2024/03/27 10:47:00;;;;;;;2.53;2.33;;;;;;;;;;5147962;27;20450;-74
2024/03/27 10:49:26;;;;;;;4.30;3.13;;;;;;;;;;5135381;27;20026;-67
2024/03/27 10:51:52;;;;;;;6.43;3.70;;;;;;;;;;5146244;27;20026;-69
2024/03/27 10:54:18;;;;;;;3.53;2.50;;;;;;;;;;5151605;27;20419;-62
2024/03/27 10:56:44;;;;;;;5.68;3.83;;;;;;;;;;5136809;27;20452;-77
2024/03/27 10:59:11;;;;;;;4.95;4.00;;;;;;;;;;5135397;27;20408;-72
2024/03/27 11:01:40;;;;;;;5.50;5.00;;;;;;;;;;5147303;27;20034;-67
2024/03/27 11:04:06;;;;;;;8.48;5.50;;;;;;;;;;5151806;27;20095;-63
2024/03/27 11:06:35;;;;;;;5.70;4.68;;;;;;;;;;5151917;27;20032;-70
2024/03/27 11:09:03;;;;;;;8.77;7.07;;;;;;;;;;5145874;27;20351;-71
2024/03/27 11:11:31;;;;;;;7.75;6.95;;;;;;;;;;5154366;27;20030;-68
2024/03/27 11:13:57;;;;;;;8.27;7.47;;;;;;;;;;5144557;27;20525;-61
2024/03/27 11:16:24;;;;;;;9.32;8.40;;;;;;;;;;5147760;27;20035;-67
2024/03/27 11:18:53;;;;;;;7.50;6.75;;;;;;;;;;5126876;27;20469;-62
2024/03/27 11:21:19;;;;;;;7.90;7.10;;;;;;;;;;5151791;27;20030;-65
2024/03/27 11:23:50;;;;;;;8.90;8.00;;;;;;;;;;5120997;27;20042;-62
2024/03/27 11:26:27;;;;;;;8.77;7.97;;;;;;;;;;5152014;27;20476;-60
2024/03/27 11:28:53;;;;;;;8.52;7.75;;;;;;;;;;5133685;27;20025;-61
2024/03/27 11:31:20;;;;;;;8.88;7.95;;;;;;;;;;5147770;27;20019;-66
2024/03/27 11:33:48;;;;;;;9.00;7.68;;;;;;;;;;5149716;27;20046;-62
2024/03/27 11:36:21;;;;;;;8.43;7.63;;;;;;;;;;5134269;27;20109;-64
2024/03/27 11:38:47;;;;;;;7.27;6.77;;;;;;;;;;5137351;27;20027;-68
2024/03/27 11:41:13;;;;;;;7.70;7.10;;;;;;;;;;5130849;27;20043;-65
2024/03/27 11:43:39;;;;;;;6.55;6.05;;;;;;;;;;5149734;27;20472;-65
2024/03/27 11:46:06;;;;;;;7.05;6.47;;;;;;;;;;5145498;27;20159;-65
2024/03/27 11:48:32;;;;;;;8.30;7.57;;;;;;;;;;5143806;27;20427;-64
2024/03/27 11:51:02;;;;;;;9.15;8.25;;;;;;;;;;5147917;27;20023;-64
2024/03/27 11:53:29;;;;;;;7.57;6.90;;;;;;;;;;5148992;27;20045;-64
2024/03/27 11:55:55;;;;;;;8.70;7.82;;;;;;;;;;5152411;27;20380;-64
2024/03/27 11:58:21;;;;;;;8.02;7.13;;;;;;;;;;5142141;27;20023;-64
2024/03/27 12:00:49;;;;;;;9.18;7.05;;;;;;;;;;5154197;27;20022;-65
2024/03/27 12:03:15;;;;;;;7.90;7.13;;;;;;;;;;5149611;27;20031;-65
2024/03/27 12:05:42;;;;;;;6.72;5.90;;;;;;;;;;5141626;27;20019;-64
2024/03/27 12:08:08;;;;;;;6.43;5.82;;;;;;;;;;5151606;27;20026;-65
2024/03/27 12:10:34;;;;;;;5.68;5.22;;;;;;;;;;5145205;27;20476;-66
2024/03/27 12:13:03;;;;;;;6.68;5.65;;;;;;;;;;5146433;27;20026;-70
2024/03/27 12:15:31;;;;;;;5.22;4.72;;;;;;;;;;5137424;27;20429;-73
2024/03/27 12:18:00;;;;;;;4.18;3.85;;;;;;;;;;5153858;27;20082;-62
2024/03/27 12:20:36;;;;;;;6.13;5.05;;;;;;;;;;5141219;27;20110;-76
2024/03/27 12:23:02;;;;;;;4.25;3.90;;;;;;;;;;5147155;27;20126;-73
2024/03/27 12:25:31;;;;;;;5.00;4.60;;;;;;;;;;5139654;27;20061;-70
2024/03/27 12:28:02;;;;;;;7.38;6.18;;;;;;;;;;5151576;27;20027;-69
2024/03/27 12:30:28;;;;;;;7.20;6.50;;;;;;;;;;5143375;27;20021;-64
2024/03/27 12:32:54;;;;;;;8.30;7.05;;;;;;;;;;5138985;27;20121;-63
2024/03/27 12:35:21;;;;;;;5.32;4.82;;;;;;;;;;5145828;27;20066;-67
2024/03/27 12:37:47;;;;;;;4.95;4.65;;;;;;;;;;5151929;27;20027;-67
2024/03/27 12:40:13;;;;;;;5.55;5.15;;;;;;;;;;5152415;27;20018;-64
2024/03/27 12:42:40;;;;;;;5.18;4.78;;;;;;;;;;5150261;27;20085;-65
2024/03/27 12:45:06;;;;;;;7.63;6.93;;;;;;;;;;5153854;27;20512;-60
2024/03/27 12:47:32;;;;;;;5.25;4.85;;;;;;;;;;5135385;27;20079;-64
2024/03/27 12:49:58;;;;;;;5.90;5.30;;;;;;;;;;5153873;27;20380;-69
2024/03/27 12:52:24;;;;;;;4.82;4.43;;;;;;;;;;5153875;27;20034;-67
2024/03/27 12:54:51;;;;;;;4.70;4.30;;;;;;;;;;5151678;27;20034;-64
2024/03/27 12:57:17;;;;;;;4.88;4.47;;;;;;;;;;5147813;27;20354;-68
2024/03/27 12:59:43;;;;;;;5.10;4.80;;;;;;;;;;5153565;27;20029;-60
2024/03/27 13:02:11;;;;;;;4.88;4.47;;;;;;;;;;5153400;27;20026;-71
2024/03/27 13:04:37;;;;;;;5.03;4.63;;;;;;;;;;5152347;27;20029;-67
2024/03/27 13:07:03;;;;;;;4.75;4.45;;;;;;;;;;5152448;27;20094;-70
2024/03/27 13:09:29;;;;;;;4.68;4.38;;;;;;;;;;5150189;27;20094;-62
2024/03/27 13:11:55;;;;;;;4.18;3.78;;;;;;;;;;5150082;27;20053;-63
2024/03/27 13:14:23;;;;;;;4.53;4.13;;;;;;;;;;5145728;27;20050;-58
2024/03/27 13:16:54;;;;;;;2.85;2.65;;;;;;;;;;5143290;27;20022;-72
2024/03/27 13:19:20;;;;;;;2.97;2.78;;;;;;;;;;5148999;27;20029;-64
2024/03/27 13:21:46;;;;;;;2.53;2.42;;;;;;;;;;5148654;27;20038;-72
2024/03/27 13:24:12;;;;;;;3.53;3.22;;;;;;;;;;5151688;27;20356;-75
2024/03/27 13:26:38;;;;;;;2.97;2.67;;;;;;;;;;5145728;27;20056;-63
2024/03/27 13:29:04;;;;;;;3.60;2.22;;;;;;;;;;5147933;27;20050;-69
2024/03/27 13:31:31;;;;;;;2.15;2.00;;;;;;;;;;5150787;27;20022;-67
2024/03/27 13:33:57;;;;;;;1.65;1.55;;;;;;;;;;5137936;27;20090;-79
2024/03/27 13:36:23;;;;;;;2.50;2.30;;;;;;;;;;5146170;27;20053;-61
2024/03/27 13:38:49;;;;;;;2.13;2.03;;;;;;;;;;5153101;27;20042;-69
2024/03/27 13:41:15;;;;;;;3.60;2.72;;;;;;;;;;5148133;27;20030;-63
2024/03/27 13:43:41;;;;;;;2.35;1.83;;;;;;;;;;5153365;27;21412;-61
2024/03/27 13:46:07;;;;;;;1.88;1.77;;;;;;;;;;5148658;27;20027;-66
2024/03/27 13:48:33;;;;;;;1.30;1.23;;;;;;;;;;5147281;27;20050;-64
2024/03/27 13:50:59;;;;;;;1.35;1.10;;;;;;;;;;5142355;27;20102;-69
2024/03/27 13:53:28;;;;;;;1.63;1.30;;;;;;;;;;5145364;27;20045;-69
2024/03/27 13:55:54;;;;;;;2.13;1.50;;;;;;;;;;5139294;27;20034;-74
2024/03/27 13:58:20;;;;;;;1.30;1.20;;;;;;;;;;5149771;27;20090;-58
2024/03/27 14:00:47;;;;;;;2.35;1.88;;;;;;;;;;5146134;27;20039;-67
2024/03/27 14:03:13;;;;;;;1.45;1.38;;;;;;;;;;5150724;27;20031;-67
2024/03/27 14:05:39;;;;;;;1.55;1.45;;;;;;;;;;5150320;27;20056;-60
2024/03/27 14:08:05;;;;;;;1.58;1.30;;;;;;;;;;5138478;27;20018;-73
2024/03/27 14:10:31;;;;;;;4.15;1.40;;;;;;;;;;5138231;27;20019;-68
2024/03/27 14:12:57;;;;;;;1.75;1.55;;;;;;;;;;5153285;27;20035;-70
2024/03/27 14:15:23;;;;;;;2.45;2.25;;;;;;;;;;5150161;27;20023;-63
2024/03/27 14:17:49;;;;;;;2.38;2.17;;;;;;;;;;5156223;27;20037;-64
2024/03/27 14:20:16;;;;;;;2.03;1.92;;;;;;;;;;5145164;27;20023;-65
2024/03/27 14:22:42;;;;;;;2.38;2.20;;;;;;;;;;5147816;27;20034;-63
2024/03/27 14:25:08;;;;;;;2.20;2.10;;;;;;;;;;5146282;27;20022;-63